Latest Weather Observations for Proserpine

IDQ60801

Issued at 4:05 pm EST Monday 28 July 2014 (issued every 30 minutes, with the page automatically refreshed every 10 minutes)

About weather observations | Map of weather stations | Latest weather observations for QLD | Other Formats
Station Details ID: 033247 Name: PROSERPINE AIRPORT Lat: -20.49 Lon: 148.56 Height: 19.7 m
Data from the previous 72 hours. | See also: Recent months at Proserpine
Date/Time
EST
Temp
°C
App
Temp
°C
Dew
Point
Rel
Hum
%
Delta-T
°C
Wind Press
QNH
hPa
Press
MSL
hPa
Rain
since 9 am
mm
Dir
 
Spd
km/h
Gust
km/h
Spd
kts
Gust
kts
28/04:00pm 23.3 20.7 13.2 53 5.8 E 19 26 10 14 1019.6 - 0.0
28/03:30pm 23.6 20.6 13.8 54 5.7 ESE 22 32 12 17 1019.4 - 0.0
28/03:00pm 24.2 20.7 12.2 47 6.8 E 22 30 12 16 1019.4 1019.4 0.0
28/02:30pm 24.5 21.1 12.5 47 6.9 E 22 32 12 17 1019.6 - 0.0
28/02:00pm 24.5 21.3 15.4 57 5.5 E 26 32 14 17 1019.9 - 0.0
28/01:30pm 23.7 20.4 14.9 57 5.2 E 26 37 14 20 1020.4 - 0.0
28/01:00pm 24.0 21.4 16.0 61 4.9 ESE 24 33 13 18 1020.7 - 0.0
28/12:30pm 24.3 22.0 16.6 62 4.7 ESE 24 33 13 18 1021.1 - 0.0
28/12:00pm 23.4 20.7 15.5 61 4.7 ESE 24 33 13 18 1021.5 1021.4 0.0
28/11:30am 23.6 21.4 15.9 62 4.7 ESE 22 32 12 17 1021.9 - 0.0
28/11:00am 23.2 21.1 15.3 61 4.7 ESE 20 30 11 16 1022.3 - 0.0
28/10:30am 23.3 21.8 16.4 65 4.2 ESE 19 28 10 15 1022.8 - 0.0
28/10:00am 22.9 21.6 16.7 68 3.8 ESE 19 28 10 15 1022.9 - 0.0
28/09:39am 22.0 21.6 16.3 70 3.5 ESE 13 20 7 11 1023.0 - 0.0
28/09:30am 21.1 21.4 15.9 72 3.1 ESE 9 13 5 7 1023.1 - 0.0
28/09:00am 19.1 18.9 15.6 80 2.1 S 11 13 6 7 1023.1 1023.0 0.0
28/08:49am 18.6 18.1 14.9 79 2.2 S 11 13 6 7 1023.0 - 0.0
28/08:30am 17.3 17.1 14.6 84 1.6 S 9 11 5 6 1023.0 - 0.0
28/08:00am 15.3 15.1 13.5 89 1.0 SSW 7 9 4 5 1022.7 - 0.0
28/07:53am 15.1 14.7 13.1 88 1.1 SSW 7 9 4 5 1022.7 - 0.0
28/07:30am 14.7 14.5 13.6 93 0.6 SSW 7 9 4 5 1022.5 - 0.0
28/07:00am 14.3 13.6 13.3 94 0.6 SW 9 11 5 6 1022.3 - 0.0
28/06:40am 13.9 13.2 13.3 96 0.3 SW 9 11 5 6 1022.1 - 0.0
28/06:30am 13.6 13.8 13.0 96 0.3 W 4 7 2 4 1022.0 - 0.0
28/06:00am 13.2 12.7 12.7 97 0.3 SW 7 9 4 5 1021.7 1021.6 0.0
28/05:30am 13.2 12.3 12.7 97 0.3 SSW 9 11 5 6 1021.5 - 0.0
28/05:00am 12.4 10.9 11.9 97 0.3 SSW 11 15 6 8 1021.3 - 0.0
28/04:37am 12.6 12.0 12.4 99 0.1 SSW 7 9 4 5 1021.2 - 0.0
28/04:30am 12.4 11.7 12.1 98 0.2 SSW 7 9 4 5 1021.2 - 0.0
28/04:10am 11.8 10.9 11.5 98 0.2 S 7 9 4 5 1021.1 - 0.0
28/04:00am 12.0 11.3 11.5 97 0.3 SSW 6 7 3 4 1021.1 - 0.0
28/03:53am 11.6 11.2 11.1 97 0.3 SW 4 7 2 4 1021.1 - 0.0
28/03:30am 11.8 12.2 11.3 97 0.3 CALM 0 6 0 3 1021.0 - 0.0
28/03:00am 12.7 12.2 12.5 99 0.1 SSW 7 7 4 4 1021.1 1021.0 0.0
28/02:30am 11.2 11.1 10.9 98 0.2 WSW 2 7 1 4 1021.3 - 0.0
28/02:00am 10.9 10.0 10.6 98 0.2 W 6 9 3 5 1021.4 - 0.0
28/01:30am 12.8 12.3 12.5 98 0.2 S 7 9 4 5 1021.7 - 0.0
28/01:29am 12.8 12.3 12.5 98 0.2 S 7 11 4 6 1021.7 - 0.0
28/01:07am 12.2 12.7 11.7 97 0.3 CALM 0 6 0 3 1021.9 - 0.0
28/01:00am 12.3 12.9 11.8 97 0.3 CALM 0 0 0 0 1022.0 - 0.0
28/12:50am 12.1 12.6 11.5 96 0.3 CALM 0 0 0 0 1022.0 - 0.0
28/12:37am 12.4 13.0 11.8 96 0.3 CALM 0 0 0 0 1022.1 - 0.0
28/12:30am 12.4 13.0 11.8 96 0.3 SW 0 0 0 0 1022.2 - 0.0
28/12:18am 12.5 13.0 11.7 95 0.4 CALM 0 0 0 0 1022.3 - 0.0
28/12:00am 13.0 13.7 12.2 95 0.4 SW 0 0 0 0 1022.4 1022.3 0.0
 
Date/Time
EST
Temp
°C
App
Temp
°C
Dew
Point
Rel
Hum
%
Delta-T
°C
Wind Press
QNH
hPa
Press
MSL
hPa
Rain
since 9 am
mm
Dir
 
Spd
km/h
Gust
km/h
Spd
kts
Gust
kts
27/11:57pm 13.0 13.8 12.4 96 0.3 CALM 0 0 0 0 1022.4 - 0.0
27/11:30pm 14.2 14.0 13.7 97 0.3 SW 7 9 4 5 1022.5 - 0.0
27/11:00pm 14.3 14.2 13.8 97 0.3 SSW 7 11 4 6 1022.6 - 0.0
27/10:30pm 14.1 13.5 13.5 96 0.3 SSW 9 13 5 7 1022.6 - 0.0
27/10:00pm 14.7 14.3 14.1 96 0.3 S 9 11 5 6 1022.8 - 0.0
27/09:30pm 15.5 15.8 15.0 97 0.3 S 7 9 4 5 1022.8 - 0.0
27/09:00pm 15.5 15.8 15.0 97 0.3 SSW 7 9 4 5 1022.7 1022.6 0.0
27/08:30pm 15.6 15.1 14.8 95 0.5 SSW 11 15 6 8 1022.6 - 0.0
27/08:00pm 16.2 16.2 15.1 93 0.6 SSW 9 11 5 6 1022.4 - 0.0
27/07:30pm 16.9 16.7 15.8 93 0.6 S 11 13 6 7 1022.1 - 0.0
27/07:00pm 17.8 18.5 16.1 90 1.0 S 7 11 4 6 1021.7 - 0.0
27/06:30pm 18.4 18.8 16.2 87 1.3 S 9 11 5 6 1021.2 - 0.0
27/06:00pm 19.3 18.3 16.7 85 1.6 SE 17 22 9 12 1020.9 1020.8 0.0
27/05:30pm 20.4 19.4 16.6 79 2.3 ESE 17 22 9 12 1020.5 - 0.0
27/05:00pm 21.5 19.8 16.2 72 3.2 E 20 32 11 17 1020.2 - 0.0
27/04:30pm 22.4 20.4 15.5 65 4.1 ESE 20 30 11 16 1020.2 - 0.0
27/04:00pm 23.6 21.3 15.6 61 4.8 E 22 33 12 18 1020.0 - 0.0
27/03:30pm 23.9 21.1 15.4 59 5.1 E 24 32 13 17 1019.9 - 0.0
27/03:00pm 24.2 21.4 15.4 58 5.3 E 24 32 13 17 1019.9 1019.9 0.0
27/02:30pm 25.0 22.2 14.2 51 6.4 E 22 32 12 17 1020.0 - 0.0
27/02:00pm 24.8 21.7 14.6 53 6.1 E 24 32 13 17 1020.4 - 0.0
27/01:30pm 24.6 22.2 15.5 57 5.5 E 22 32 12 17 1020.7 - 0.0
27/01:00pm 25.8 23.9 16.6 56 5.7 E 22 28 12 15 1021.1 - 0.0
27/12:30pm 24.7 22.6 16.2 59 5.2 E 22 32 12 17 1021.6 - 0.0
27/12:00pm 24.6 22.0 15.8 58 5.3 ESE 24 37 13 20 1022.0 1021.9 0.0
27/11:30am 24.5 22.3 17.0 63 4.6 ESE 24 32 13 17 1022.4 - 0.0
27/11:00am 24.3 22.6 16.3 61 4.9 ESE 20 30 11 16 1022.6 - 0.0
27/10:30am 24.6 23.1 16.8 62 4.8 ESE 20 30 11 16 1022.9 - 0.0
27/10:00am 24.6 23.0 16.6 61 4.9 ESE 20 30 11 16 1023.1 - 0.0
27/09:30am 22.7 22.4 16.5 68 3.8 SSE 13 20 7 11 1023.3 - 0.0
27/09:00am 21.6 21.1 17.0 75 2.8 SSE 15 20 8 11 1023.3 1023.3 0.0
27/08:30am 21.1 20.9 17.5 80 2.2 S 15 22 8 12 1023.1 - 0.0
27/08:00am 19.7 20.5 17.3 86 1.5 S 9 15 5 8 1023.0 - 0.0
27/07:45am 19.3 19.7 17.3 88 1.2 S 11 15 6 8 1023.0 - 0.0
27/07:30am 19.1 19.1 17.1 88 1.2 SSE 13 17 7 9 1022.8 - 0.0
27/07:00am 18.8 19.1 17.1 90 1.0 S 11 17 6 9 1022.6 - 0.0
27/06:30am 18.6 19.0 17.3 92 0.8 SSE 11 17 6 9 1022.3 - 0.0
27/06:00am 17.4 18.6 16.8 96 0.4 SSE 6 9 3 5 1022.1 1022.0 0.0
27/05:56am 17.0 17.9 16.2 95 0.5 SSE 6 9 3 5 1022.1 - 0.0
27/05:30am 17.1 17.9 16.3 95 0.5 S 7 9 4 5 1022.0 - 0.0
27/05:00am 17.0 17.3 16.0 94 0.6 S 9 11 5 6 1021.8 - 0.0
27/04:30am 17.4 17.4 16.3 93 0.7 SSE 11 15 6 8 1021.8 - 0.0
27/04:00am 16.9 17.1 15.8 93 0.6 S 9 11 5 6 1021.6 - 0.0
27/03:30am 17.9 18.3 16.4 91 0.9 S 9 13 5 7 1021.5 - 0.0
27/03:00am 18.0 18.1 16.5 91 0.9 S 11 15 6 8 1021.7 1021.6 0.0
27/02:30am 18.6 18.9 16.9 90 1.0 S 11 15 6 8 1022.1 - 0.0
27/02:00am 18.5 18.9 17.2 92 0.8 S 11 13 6 7 1022.2 - 0.0
27/01:30am 17.9 19.5 16.9 94 0.6 SSE 4 6 2 3 1022.6 - 0.0
27/01:00am 17.5 18.0 16.5 94 0.6 SSW 9 11 5 6 1023.1 - 0.0
27/12:30am 17.8 18.9 16.5 92 0.8 SW 6 9 3 5 1023.5 - 0.0
27/12:00am 18.6 18.9 16.9 90 1.0 SSE 11 13 6 7 1023.6 1023.6 0.0
 
Date/Time
EST
Temp
°C
App
Temp
°C
Dew
Point
Rel
Hum
%
Delta-T
°C
Wind Press
QNH
hPa
Press
MSL
hPa
Rain
since 9 am
mm
Dir
 
Spd
km/h
Gust
km/h
Spd
kts
Gust
kts
26/11:30pm 18.5 18.7 16.8 90 1.0 SSE 11 15 6 8 1024.0 - 0.0
26/11:00pm 18.7 19.0 17.0 90 1.0 S 11 15 6 8 1024.1 - 0.0
26/10:30pm 18.5 18.3 16.7 89 1.1 SSE 13 17 7 9 1024.2 - 0.0
26/10:00pm 18.9 18.8 16.9 88 1.2 SSE 13 17 7 9 1024.1 - 0.0
26/09:30pm 19.3 19.6 17.1 87 1.3 S 11 15 6 8 1024.1 - 0.0
26/09:00pm 19.4 19.5 17.4 88 1.2 SSE 13 17 7 9 1024.1 1024.1 0.0
26/08:30pm 19.5 20.4 17.6 89 1.2 S 9 13 5 7 1024.0 - 0.0
26/08:00pm 19.5 20.9 17.8 90 1.0 SE 7 11 4 6 1024.0 - 0.0
26/07:30pm 19.6 21.0 17.9 90 1.0 SE 7 11 4 6 1023.9 - 0.0
26/07:00pm 19.8 20.5 17.9 89 1.2 SE 11 15 6 8 1023.5 - 0.0
26/06:30pm 19.9 19.9 18.0 89 1.2 ESE 15 22 8 12 1022.9 - 0.0
26/06:00pm 20.1 20.0 17.9 87 1.4 ESE 15 20 8 11 1022.5 1022.4 0.0
26/05:30pm 20.6 20.1 17.8 84 1.7 ESE 17 26 9 14 1022.3 - 0.0
26/05:00pm 21.3 21.1 17.5 79 2.3 ESE 15 20 8 11 1022.1 - 0.0
26/04:30pm 21.7 21.2 17.9 79 2.4 E 17 24 9 13 1022.0 - 0.0
26/04:00pm 22.0 21.0 17.6 76 2.7 E 19 26 10 14 1021.9 - 0.0
26/03:30pm 22.5 21.3 17.0 71 3.4 ESE 19 26 10 14 1021.8 - 0.0
26/03:00pm 23.4 22.0 16.9 67 4.0 ESE 20 30 11 16 1021.5 1021.4 0.0
26/02:30pm 23.9 22.6 16.7 64 4.4 ESE 19 24 10 13 1021.7 - 0.0
26/02:00pm 24.9 23.6 16.9 61 4.9 ESE 19 28 10 15 1022.0 - 0.0
26/01:30pm 24.2 23.0 16.2 61 4.9 ESE 17 24 9 13 1022.3 - 0.0
26/01:00pm 24.3 22.9 16.6 62 4.7 ESE 19 28 10 15 1022.6 - 0.0
26/12:30pm 23.9 22.6 16.7 64 4.4 ESE 19 24 10 13 1023.2 - 0.0
26/12:00pm 24.6 23.2 17.1 63 4.6 SE 20 28 11 15 1023.5 1023.5 0.0
26/11:30am 23.8 22.3 16.8 65 4.3 ESE 20 32 11 17 1024.2 - 0.0
26/11:00am 23.1 21.7 16.6 67 4.0 ESE 19 28 10 15 1024.4 - 0.0
26/10:30am 23.2 21.7 16.7 67 4.0 ESE 20 32 11 17 1024.5 - 0.0
26/10:00am 23.6 21.8 16.9 66 4.1 ESE 22 28 12 15 1024.7 - 0.0
26/09:30am 22.6 21.6 16.6 69 3.7 SE 17 24 9 13 1024.7 - 0.0
26/09:00am 21.3 20.7 17.5 79 2.3 S 17 20 9 11 1024.6 1024.6 0.0
26/08:30am 20.3 21.7 17.7 85 1.6 S 7 13 4 7 1024.3 - 0.0
26/08:19am 19.5 20.8 17.5 88 1.2 SSW 7 9 4 5 1024.2 - 0.0
26/08:00am 18.4 19.7 17.1 92 0.8 S 6 9 3 5 1024.3 - 0.0
26/07:30am 17.2 19.0 16.4 95 0.5 NNE 2 7 1 4 1024.1 - 0.0
26/07:18am 16.9 18.9 16.1 95 0.5 CALM 0 7 0 4 1024.1 - 0.0
26/07:00am 16.5 17.7 15.9 96 0.4 SW 4 7 2 4 1023.9 - 0.0
26/06:30am 16.1 17.8 15.3 95 0.5 CALM 0 0 0 0 1023.6 - 0.0
26/06:00am 16.0 16.3 15.0 94 0.6 S 7 9 4 5 1023.5 1023.5 0.0
26/05:30am 16.3 16.6 15.0 92 0.8 SW 7 9 4 5 1023.2 - 0.0
26/05:00am 17.1 17.3 15.8 92 0.8 SSW 9 13 5 7 1023.0 - 0.0
26/04:51am 17.0 16.8 15.7 92 0.8 SSW 11 13 6 7 1023.1 - 0.0
26/04:30am 17.0 18.9 15.7 92 0.8 CALM 0 0 0 0 1023.3 - 0.0
26/04:00am 16.8 18.7 15.7 93 0.6 CALM 0 0 0 0 1023.3 - 0.0
26/03:45am 16.6 18.3 15.3 92 0.8 CALM 0 0 0 0 1023.4 - 0.0
26/03:32am 16.5 18.2 15.2 92 0.8 CALM 0 0 0 0 1023.3 - 0.0
26/03:30am 16.5 18.2 15.2 92 0.8 CALM 0 0 0 0 1023.3 - 0.0
26/03:08am 16.4 16.7 15.1 92 0.8 S 7 9 4 5 1023.0 - 0.0
26/03:00am 16.5 16.9 15.4 93 0.6 S 7 9 4 5 1023.1 1023.0 0.0
26/02:30am 17.5 17.4 16.0 91 0.9 SSE 11 15 6 8 1023.2 - 0.0
26/02:00am 17.3 17.0 15.5 89 1.1 S 11 15 6 8 1023.3 - 0.0
26/01:30am 17.4 17.2 15.6 89 1.1 S 11 13 6 7 1023.7 - 0.0
26/01:00am 17.1 17.2 15.6 91 0.9 S 9 11 5 6 1024.0 - 0.0
26/12:30am 17.2 17.2 15.2 88 1.2 S 9 11 5 6 1024.5 - 0.0
26/12:00am 17.3 17.7 15.3 88 1.2 S 7 9 4 5 1024.5 1024.5 0.0
 
Date/Time
EST
Temp
°C
App
Temp
°C
Dew
Point
Rel
Hum
%
Delta-T
°C
Wind Press
QNH
hPa
Press
MSL
hPa
Rain
since 9 am
mm
Dir
 
Spd
km/h
Gust
km/h
Spd
kts
Gust
kts
25/11:30pm 17.8 18.2 15.4 86 1.4 S 7 11 4 6 1024.8 - 0.0
25/11:00pm 18.1 17.9 15.7 86 1.4 S 11 13 6 7 1024.7 - 0.0
25/10:30pm 18.5 18.7 15.7 84 1.7 S 9 15 5 8 1024.7 - 0.0
25/10:00pm 18.8 18.3 16.0 84 1.7 SSE 13 17 7 9 1024.6 - 0.0
25/09:30pm 19.0 18.2 16.2 84 1.7 S 15 19 8 10 1024.5 - 0.0
25/09:00pm 19.0 18.7 16.4 85 1.6 S 13 15 7 8 1024.5 1024.5 0.0
25/08:30pm 18.8 19.3 16.6 87 1.3 S 9 13 5 7 1024.4 - 0.0
25/08:00pm 19.1 19.4 16.9 87 1.3 SSE 11 15 6 8 1024.1 - 0.0
25/07:30pm 19.2 19.1 17.0 87 1.3 SE 13 17 7 9 1023.7 - 0.0
25/07:00pm 18.8 18.9 16.6 87 1.3 ESE 11 15 6 8 1023.5 - 0.0
25/06:30pm 19.1 18.9 16.7 86 1.4 SE 13 20 7 11 1023.0 - 0.0
25/06:00pm 19.5 18.9 16.7 84 1.7 SE 15 19 8 10 1022.4 1022.3 0.0
25/05:30pm 20.3 19.3 16.7 80 2.2 ESE 17 24 9 13 1022.0 - 0.0
25/05:00pm 21.0 19.1 16.8 77 2.6 ESE 22 30 12 16 1021.7 - 0.0
25/04:30pm 21.9 19.4 17.1 74 2.9 ESE 26 39 14 21 1021.5 - 0.0

Other Formats:

Comma delimited format used in spreadsheet applications
http://www.bom.gov.au/fwo/IDQ60801/IDQ60801.94365.axf

JavaScript Object Notation format (JSON) in row-major order
http://www.bom.gov.au/fwo/IDQ60801/IDQ60801.94365.json